createdAt,value
2023-04-29T00:00:25.695Z,10.60
2023-04-29T00:02:53.523Z,10.70
2023-04-29T00:05:21.453Z,10.70
2023-04-29T00:07:49.277Z,10.70
2023-04-29T00:10:17.177Z,10.70
2023-04-29T00:12:45.078Z,10.60
2023-04-29T00:15:14.410Z,10.60
2023-04-29T00:17:42.249Z,10.60
2023-04-29T00:20:11.884Z,10.60
2023-04-29T00:22:39.704Z,10.60
2023-04-29T00:25:09.006Z,10.60
2023-04-29T00:27:36.721Z,10.60
2023-04-29T00:30:04.852Z,10.60
2023-04-29T00:32:33.978Z,10.60
2023-04-29T00:35:02.294Z,10.60
2023-04-29T00:37:30.015Z,10.60
2023-04-29T00:39:57.809Z,10.60
2023-04-29T00:42:26.384Z,10.60
2023-04-29T00:44:54.149Z,10.60
2023-04-29T00:47:22.169Z,10.50
2023-04-29T00:49:51.685Z,10.50
2023-04-29T00:52:20.328Z,10.50
2023-04-29T00:54:48.784Z,10.50
2023-04-29T00:57:16.564Z,10.50
2023-04-29T00:59:45.748Z,10.50
2023-04-29T01:02:14.790Z,10.50
2023-04-29T01:04:42.624Z,10.50
2023-04-29T01:07:18.399Z,10.50
2023-04-29T01:10:01.322Z,10.50
2023-04-29T01:12:36.051Z,10.50
2023-04-29T01:15:09.231Z,10.50
2023-04-29T01:17:42.473Z,10.50
2023-04-29T01:20:12.065Z,10.40
2023-04-29T01:22:41.766Z,10.40
2023-04-29T01:25:11.084Z,10.40
2023-04-29T01:27:47.847Z,10.40
2023-04-29T01:30:28.494Z,10.40
2023-04-29T01:33:04.352Z,10.40
2023-04-29T01:35:45.652Z,10.40
2023-04-29T01:38:22.705Z,10.40
2023-04-29T01:41:07.241Z,10.40
2023-04-29T01:43:38.194Z,10.40
2023-04-29T01:46:07.929Z,10.30
2023-04-29T01:48:36.413Z,10.30
2023-04-29T01:51:05.598Z,10.30
2023-04-29T01:53:33.667Z,10.40
2023-04-29T01:56:02.728Z,10.30
2023-04-29T01:58:30.468Z,10.30
2023-04-29T02:00:58.497Z,10.30
2023-04-29T02:03:26.492Z,10.40
2023-04-29T02:05:54.660Z,10.40
2023-04-29T02:08:22.400Z,10.40
2023-04-29T02:10:54.736Z,10.40
2023-04-29T02:13:23.897Z,10.30
2023-04-29T02:15:51.712Z,10.30
2023-04-29T02:18:19.586Z,10.30
2023-04-29T02:20:47.470Z,10.20
2023-04-29T02:23:15.227Z,10.20
2023-04-29T02:25:42.993Z,10.20
2023-04-29T02:28:10.777Z,10.30
2023-04-29T02:30:40.261Z,10.30
2023-04-29T02:33:08.792Z,10.20
2023-04-29T02:35:37.087Z,10.20
2023-04-29T02:38:04.864Z,10.20
2023-04-29T02:40:32.736Z,10.20
2023-04-29T02:43:01.444Z,10.20
2023-04-29T02:45:29.388Z,10.20
2023-04-29T02:47:58.666Z,10.30
2023-04-29T02:50:27.046Z,10.20
2023-04-29T02:52:54.824Z,10.20
2023-04-29T02:55:22.583Z,10.20
2023-04-29T02:57:50.343Z,10.20
2023-04-29T03:00:18.107Z,10.30
2023-04-29T03:02:46.634Z,10.30
2023-04-29T03:05:16.453Z,10.20
2023-04-29T03:07:44.744Z,10.30
2023-04-29T03:10:12.715Z,10.20
2023-04-29T03:12:40.844Z,10.20
2023-04-29T03:15:10.521Z,10.30
2023-04-29T03:17:38.469Z,10.20
2023-04-29T03:20:07.735Z,10.30
2023-04-29T03:22:36.996Z,10.20
2023-04-29T03:25:05.219Z,10.20
2023-04-29T03:27:33.003Z,10.20
2023-04-29T03:30:00.821Z,10.20
2023-04-29T03:32:28.628Z,10.20
2023-04-29T03:34:57.554Z,10.20
2023-04-29T03:37:25.442Z,10.20
2023-04-29T03:39:54.752Z,10.20
2023-04-29T03:42:22.655Z,10.10
2023-04-29T03:44:50.421Z,10.10
2023-04-29T03:47:18.303Z,10.10
2023-04-29T03:49:46.370Z,10.10
2023-04-29T03:52:14.237Z,10.20
2023-04-29T03:54:42.249Z,10.20
2023-04-29T03:57:11.322Z,10.20
2023-04-29T03:59:39.998Z,10.10
2023-04-29T04:02:07.847Z,10.20
2023-04-29T04:04:35.793Z,10.10
2023-04-29T04:07:03.845Z,10.10
2023-04-29T04:09:33.381Z,10.10
2023-04-29T04:12:01.147Z,10.10
2023-04-29T04:14:30.255Z,10.10
2023-04-29T04:16:57.998Z,10.10
2023-04-29T04:19:26.965Z,10.10
2023-04-29T04:21:55.002Z,10.20
2023-04-29T04:24:22.927Z,10.20
2023-04-29T04:26:50.764Z,10.20
2023-04-29T04:29:18.506Z,10.20
2023-04-29T04:31:47.727Z,10.30
2023-04-29T04:34:15.520Z,10.30
2023-04-29T04:36:43.307Z,10.30
2023-04-29T04:39:11.114Z,10.30
2023-04-29T04:41:39.969Z,10.30
2023-04-29T04:44:07.701Z,10.30
2023-04-29T04:46:35.569Z,10.40
2023-04-29T04:49:04.646Z,10.40
2023-04-29T04:51:32.590Z,10.50
2023-04-29T04:54:00.404Z,10.70
2023-04-29T04:56:28.197Z,11.40
2023-04-29T04:58:55.977Z,11.90
2023-04-29T05:01:23.776Z,12.00
2023-04-29T05:03:51.586Z,11.50
2023-04-29T05:06:20.763Z,11.40
2023-04-29T05:08:48.507Z,11.70
2023-04-29T05:11:19.491Z,11.70
2023-04-29T05:13:47.573Z,11.90
2023-04-29T05:16:17.159Z,12.00
2023-04-29T05:18:46.341Z,12.10
2023-04-29T05:21:16.495Z,12.20
2023-04-29T05:23:46.695Z,12.40
2023-04-29T05:26:14.510Z,12.30
2023-04-29T05:28:42.282Z,12.40
2023-04-29T05:31:10.324Z,12.50
2023-04-29T05:33:38.396Z,12.50
2023-04-29T05:36:07.282Z,12.60
2023-04-29T05:38:35.059Z,12.20
2023-04-29T05:41:04.814Z,12.30
2023-04-29T05:43:33.165Z,11.90
2023-04-29T05:46:01.431Z,11.80
2023-04-29T05:48:29.774Z,11.80
2023-04-29T05:50:57.646Z,11.70
2023-04-29T05:53:25.458Z,12.20
2023-04-29T05:55:53.219Z,13.00
2023-04-29T05:58:22.327Z,12.30
2023-04-29T06:00:50.270Z,11.90
2023-04-29T06:03:18.181Z,11.80
2023-04-29T06:05:46.469Z,11.80
2023-04-29T06:08:14.518Z,11.70
2023-04-29T06:10:42.361Z,11.80
2023-04-29T06:13:10.107Z,12.00
2023-04-29T06:15:39.335Z,12.40
2023-04-29T06:18:07.279Z,12.10
2023-04-29T06:20:37.347Z,12.00
2023-04-29T06:23:05.837Z,11.90
2023-04-29T06:25:33.694Z,12.00
2023-04-29T06:28:02.007Z,14.00
2023-04-29T06:30:29.907Z,13.40
2023-04-29T06:32:59.050Z,12.60
2023-04-29T06:35:26.936Z,12.30
2023-04-29T06:37:56.469Z,12.60
2023-04-29T06:40:24.294Z,12.70
2023-04-29T06:42:52.552Z,14.00
2023-04-29T06:45:20.734Z,14.50
2023-04-29T06:47:48.641Z,15.10
2023-04-29T06:50:18.163Z,16.20
2023-04-29T06:52:46.026Z,15.20
2023-04-29T06:55:13.855Z,14.70
2023-04-29T06:57:41.749Z,14.30
2023-04-29T07:00:10.273Z,13.70
2023-04-29T07:02:38.961Z,15.20
2023-04-29T07:05:08.089Z,14.50
2023-04-29T07:07:37.200Z,13.80
2023-04-29T07:10:05.475Z,13.80
2023-04-29T07:12:33.225Z,13.80
2023-04-29T07:15:01.682Z,16.10
2023-04-29T07:17:31.368Z,15.00
2023-04-29T07:19:59.431Z,13.90
2023-04-29T07:22:27.188Z,13.80
2023-04-29T07:24:57.029Z,14.00
2023-04-29T07:27:24.971Z,14.20
2023-04-29T07:29:52.742Z,13.60
2023-04-29T07:32:20.545Z,14.10
2023-04-29T07:34:48.698Z,13.80
2023-04-29T07:37:16.626Z,15.30
2023-04-29T07:39:44.439Z,14.30
2023-04-29T07:42:13.576Z,14.70
2023-04-29T07:44:41.415Z,14.70
2023-04-29T07:47:09.238Z,16.30
2023-04-29T07:49:37.370Z,15.60
2023-04-29T07:52:06.193Z,15.40
2023-04-29T07:54:33.982Z,14.30
2023-04-29T07:57:03.567Z,15.30
2023-04-29T07:59:32.832Z,15.40
2023-04-29T08:02:00.836Z,16.90
2023-04-29T08:04:28.739Z,17.30
2023-04-29T08:06:56.895Z,17.80
2023-04-29T08:09:24.839Z,17.30
2023-04-29T08:11:52.617Z,18.10
2023-04-29T08:14:20.567Z,17.50
2023-04-29T08:16:49.911Z,17.80
2023-04-29T08:19:17.692Z,17.50
2023-04-29T08:21:45.485Z,16.60
2023-04-29T08:24:13.688Z,16.20
2023-04-29T08:26:41.753Z,16.60
2023-04-29T08:29:09.615Z,16.40
2023-04-29T08:31:37.493Z,15.90
2023-04-29T08:34:06.656Z,15.60
2023-04-29T08:36:34.911Z,15.30
2023-04-29T08:39:02.869Z,15.30
2023-04-29T08:41:32.346Z,17.60
2023-04-29T08:44:00.944Z,17.20
2023-04-29T08:46:29.318Z,17.80
2023-04-29T08:48:58.702Z,16.20
2023-04-29T08:51:28.048Z,15.80
2023-04-29T08:53:57.099Z,15.80
2023-04-29T08:56:27.404Z,15.60
2023-04-29T08:58:58.899Z,15.30
2023-04-29T09:01:29.702Z,16.70
2023-04-29T09:04:08.618Z,17.00
2023-04-29T09:06:38.107Z,16.90
2023-04-29T09:09:07.515Z,16.60
2023-04-29T09:11:36.756Z,16.20
2023-04-29T09:14:05.387Z,15.90
2023-04-29T09:16:33.370Z,17.10
2023-04-29T09:19:01.242Z,17.70
2023-04-29T09:21:32.132Z,19.10
2023-04-29T09:24:03.375Z,18.80
2023-04-29T09:26:42.639Z,17.80
2023-04-29T09:29:14.401Z,17.90
2023-04-29T09:31:43.000Z,18.10
2023-04-29T09:34:11.551Z,18.40
2023-04-29T09:36:41.953Z,18.80
2023-04-29T09:39:13.368Z,19.30
2023-04-29T09:41:42.806Z,19.50
2023-04-29T09:44:11.554Z,19.50
2023-04-29T09:46:39.378Z,19.90
2023-04-29T09:49:27.278Z,19.60
2023-04-29T09:51:57.124Z,20.00
2023-04-29T09:54:28.397Z,19.40
2023-04-29T09:56:57.204Z,18.50
2023-04-29T09:59:25.707Z,17.30
2023-04-29T10:01:54.892Z,16.80
2023-04-29T10:04:24.094Z,17.00
2023-04-29T10:06:53.450Z,17.70
2023-04-29T10:09:22.391Z,18.40
2023-04-29T10:11:53.925Z,18.70
2023-04-29T10:14:24.720Z,19.10
2023-04-29T10:17:00.360Z,18.80
2023-04-29T10:19:35.534Z,19.10
2023-04-29T10:22:09.837Z,19.10
2023-04-29T10:24:38.861Z,19.00
2023-04-29T10:27:09.198Z,18.30
2023-04-29T10:29:38.978Z,18.60
2023-04-29T10:32:10.833Z,18.70
2023-04-29T10:34:40.440Z,19.20
2023-04-29T10:37:10.927Z,19.20
2023-04-29T10:39:44.796Z,19.40
2023-04-29T10:42:22.895Z,19.00
2023-04-29T10:45:24.726Z,19.00
2023-04-29T10:48:13.008Z,18.70
2023-04-29T10:51:06.057Z,18.50
2023-04-29T10:53:34.255Z,18.60
2023-04-29T10:56:08.526Z,18.40
2023-04-29T10:58:43.818Z,17.90
2023-04-29T11:01:13.848Z,17.90
2023-04-29T11:03:50.754Z,18.80
2023-04-29T11:06:18.866Z,19.20
2023-04-29T11:08:49.841Z,19.50
2023-04-29T11:11:18.063Z,18.80
2023-04-29T11:13:48.543Z,18.60
2023-04-29T11:16:16.478Z,18.50
2023-04-29T11:19:06.900Z,18.60
2023-04-29T11:21:36.079Z,18.10
2023-04-29T11:24:06.123Z,17.90
2023-04-29T11:26:35.347Z,17.70
2023-04-29T11:29:05.765Z,17.50
2023-04-29T11:31:34.335Z,17.90
2023-04-29T11:34:02.298Z,17.90
2023-04-29T11:36:33.126Z,17.80
2023-04-29T11:39:02.293Z,17.80
2023-04-29T11:41:31.541Z,18.20
2023-04-29T11:44:01.296Z,18.50
2023-04-29T11:46:33.064Z,19.00
2023-04-29T11:49:01.423Z,18.80
2023-04-29T11:51:29.543Z,19.00
2023-04-29T11:53:58.757Z,19.20
2023-04-29T11:56:26.601Z,19.10
2023-04-29T11:58:57.607Z,18.90
2023-04-29T12:01:26.780Z,18.70
2023-04-29T12:04:00.746Z,18.60
2023-04-29T12:06:30.204Z,18.80
2023-04-29T12:09:00.267Z,18.60
2023-04-29T12:11:28.861Z,18.60
2023-04-29T12:13:57.421Z,18.50
2023-04-29T12:16:25.618Z,18.60
2023-04-29T12:18:54.803Z,18.60
2023-04-29T12:21:24.423Z,18.50
2023-04-29T12:23:52.544Z,18.50
2023-04-29T12:26:21.002Z,18.50
2023-04-29T12:28:50.251Z,18.10
2023-04-29T12:31:18.050Z,18.60
2023-04-29T12:33:47.005Z,18.60
2023-04-29T12:36:19.064Z,18.60
2023-04-29T12:38:49.081Z,18.80
2023-04-29T12:41:17.225Z,18.20
2023-04-29T12:43:45.338Z,18.30
2023-04-29T12:46:13.707Z,18.70
2023-04-29T12:48:43.503Z,18.90
2023-04-29T12:51:11.567Z,18.90
2023-04-29T12:53:39.825Z,18.60
2023-04-29T12:56:09.347Z,18.50
2023-04-29T12:58:37.145Z,18.40
2023-04-29T13:01:04.987Z,18.70
2023-04-29T13:03:34.167Z,18.40
2023-04-29T13:06:02.543Z,18.90
2023-04-29T13:08:30.620Z,18.80
2023-04-29T13:10:58.604Z,18.80
2023-04-29T13:13:27.862Z,19.00
2023-04-29T13:15:55.594Z,19.30
2023-04-29T13:18:23.336Z,19.40
2023-04-29T13:20:53.279Z,19.10
2023-04-29T13:23:21.424Z,19.30
2023-04-29T13:25:51.248Z,18.70
2023-04-29T13:28:19.118Z,19.20
2023-04-29T13:30:48.254Z,18.90
2023-04-29T13:33:16.088Z,18.80
2023-04-29T13:35:43.841Z,18.60
2023-04-29T13:38:11.624Z,18.80
2023-04-29T13:40:45.513Z,18.90
2023-04-29T13:43:16.637Z,19.00
2023-04-29T13:45:55.790Z,19.20
2023-04-29T13:48:52.421Z,19.30
2023-04-29T13:51:37.310Z,19.00
2023-04-29T13:57:26.625Z,18.80
2023-04-29T14:04:21.798Z,18.90
2023-04-29T14:06:49.590Z,19.00
2023-04-29T14:09:18.589Z,18.40
2023-04-29T14:11:46.501Z,18.40
2023-04-29T14:14:14.529Z,19.10
2023-04-29T14:16:42.746Z,18.60
2023-04-29T14:19:11.998Z,18.40
2023-04-29T14:21:40.007Z,18.40
2023-04-29T14:24:07.810Z,18.70
2023-04-29T14:26:36.709Z,19.00
2023-04-29T14:29:04.471Z,18.60
2023-04-29T14:31:35.782Z,18.70
2023-04-29T14:34:03.571Z,18.40
2023-04-29T14:36:33.668Z,18.70
2023-04-29T14:39:01.727Z,18.50
2023-04-29T14:41:29.645Z,18.10
2023-04-29T14:43:57.506Z,18.30
2023-04-29T14:46:25.570Z,18.50
2023-04-29T14:48:53.466Z,18.00
2023-04-29T14:51:21.403Z,17.90
2023-04-29T14:53:51.500Z,18.00
2023-04-29T14:56:19.380Z,18.00
2023-04-29T14:58:47.211Z,17.90
2023-04-29T15:01:15.086Z,17.60
2023-04-29T15:03:44.513Z,17.60
2023-04-29T15:06:13.065Z,17.60
2023-04-29T15:08:41.065Z,17.90
2023-04-29T15:11:10.309Z,17.90
2023-04-29T15:13:39.326Z,17.80
2023-04-29T15:16:08.327Z,17.80
2023-04-29T15:18:36.452Z,17.80
2023-04-29T15:21:04.621Z,17.50
2023-04-29T15:23:32.952Z,17.80
2023-04-29T15:26:01.037Z,17.50
2023-04-29T15:28:30.179Z,17.10
2023-04-29T15:30:59.818Z,17.20
2023-04-29T15:33:27.582Z,17.00
2023-04-29T15:35:57.625Z,17.20
2023-04-29T15:38:25.673Z,17.10
2023-04-29T15:40:58.817Z,17.00
2023-04-29T15:43:26.830Z,17.40
2023-04-29T15:45:56.369Z,17.20
2023-04-29T15:48:24.853Z,17.30
2023-04-29T15:50:53.362Z,17.40
2023-04-29T15:53:21.447Z,17.20
2023-04-29T15:55:49.559Z,17.20
2023-04-29T15:58:17.481Z,17.00
2023-04-29T16:00:45.941Z,17.10
2023-04-29T16:03:15.308Z,17.00
2023-04-29T16:05:45.154Z,17.00
2023-04-29T16:08:13.099Z,17.10
2023-04-29T16:10:40.959Z,16.90
2023-04-29T16:13:08.825Z,17.00
2023-04-29T16:15:39.573Z,17.10
2023-04-29T16:18:07.567Z,17.00
2023-04-29T16:20:36.831Z,16.80
2023-04-29T16:23:04.634Z,16.60
2023-04-29T16:25:32.902Z,16.90
2023-04-29T16:28:00.710Z,16.90
2023-04-29T16:30:29.126Z,16.70
2023-04-29T16:32:57.351Z,16.60
2023-04-29T16:35:26.613Z,16.40
2023-04-29T16:37:56.664Z,16.50
2023-04-29T16:40:28.325Z,16.40
2023-04-29T16:42:56.992Z,16.20
2023-04-29T16:45:26.187Z,16.40
2023-04-29T16:47:55.038Z,16.10
2023-04-29T16:50:22.964Z,16.50
2023-04-29T16:52:51.393Z,16.50
2023-04-29T16:55:20.711Z,16.40
2023-04-29T16:57:50.726Z,16.10
2023-04-29T17:00:18.867Z,16.00
2023-04-29T17:02:48.553Z,16.10
2023-04-29T17:05:19.545Z,16.10
2023-04-29T17:07:50.646Z,16.20
2023-04-29T17:10:20.107Z,16.20
2023-04-29T17:12:47.954Z,16.20
2023-04-29T17:15:16.474Z,16.00
2023-04-29T17:17:44.731Z,16.10
2023-04-29T17:20:13.769Z,16.10
2023-04-29T17:22:41.567Z,16.00
2023-04-29T17:25:12.739Z,15.90
2023-04-29T17:27:42.197Z,15.90
2023-04-29T17:30:10.932Z,15.70
2023-04-29T17:32:39.685Z,15.80
2023-04-29T17:35:08.733Z,16.00
2023-04-29T17:37:36.554Z,15.80
2023-04-29T17:40:05.285Z,15.60
2023-04-29T17:42:35.695Z,15.70
2023-04-29T17:45:05.450Z,15.90
2023-04-29T17:47:33.474Z,15.50
2023-04-29T17:50:02.437Z,15.60
2023-04-29T17:52:31.473Z,15.60
2023-04-29T17:54:59.238Z,15.50
2023-04-29T17:57:28.528Z,15.40
2023-04-29T17:59:56.783Z,15.30
2023-04-29T18:02:26.303Z,15.30
2023-04-29T18:04:54.881Z,15.40
2023-04-29T18:07:22.840Z,15.50
2023-04-29T18:09:51.080Z,15.60
2023-04-29T18:12:18.942Z,15.60
2023-04-29T18:14:48.676Z,15.30
2023-04-29T18:17:16.617Z,15.40
2023-04-29T18:19:47.692Z,15.40
2023-04-29T18:22:15.579Z,15.40
2023-04-29T18:24:43.355Z,15.30
2023-04-29T18:27:11.214Z,15.40
2023-04-29T18:29:38.998Z,15.30
2023-04-29T18:32:08.218Z,15.40
2023-04-29T18:34:36.340Z,15.10
2023-04-29T18:37:05.537Z,14.80
2023-04-29T18:39:33.357Z,15.00
2023-04-29T18:42:01.286Z,15.20
2023-04-29T18:44:29.052Z,15.00
2023-04-29T18:46:56.890Z,14.40
2023-04-29T18:49:24.957Z,14.60
2023-04-29T18:51:52.741Z,14.80
2023-04-29T18:54:21.915Z,14.80
2023-04-29T18:56:51.126Z,15.00
2023-04-29T18:59:19.952Z,14.90
2023-04-29T19:01:48.477Z,14.80
2023-04-29T19:04:16.561Z,14.90
2023-04-29T19:06:44.530Z,14.80
2023-04-29T19:09:13.404Z,14.60
2023-04-29T19:11:42.604Z,14.30
2023-04-29T19:14:10.369Z,14.60
2023-04-29T19:16:38.098Z,14.70
2023-04-29T19:19:06.631Z,14.80
2023-04-29T19:21:34.662Z,14.80
2023-04-29T19:24:02.530Z,14.70
2023-04-29T19:26:32.851Z,14.70
2023-04-29T19:29:03.974Z,14.60
2023-04-29T19:31:31.824Z,14.60
2023-04-29T19:34:00.031Z,14.60
2023-04-29T19:36:27.895Z,14.60
2023-04-29T19:38:55.750Z,14.60
2023-04-29T19:41:23.911Z,14.50
2023-04-29T19:43:51.790Z,14.60
2023-04-29T19:46:20.941Z,14.60
2023-04-29T19:48:49.365Z,13.90
2023-04-29T19:51:17.270Z,14.50
2023-04-29T19:53:45.030Z,14.20
2023-04-29T19:56:12.864Z,14.50
2023-04-29T19:58:40.942Z,14.50
2023-04-29T20:01:08.864Z,14.50
2023-04-29T20:03:39.289Z,14.50
2023-04-29T20:06:08.670Z,14.50
2023-04-29T20:08:36.808Z,14.40
2023-04-29T20:11:04.864Z,14.40
2023-04-29T20:13:32.585Z,14.30
2023-04-29T20:16:00.473Z,14.30
2023-04-29T20:18:28.475Z,14.30
2023-04-29T20:20:59.753Z,14.30
2023-04-29T20:23:27.515Z,14.30
2023-04-29T20:25:56.049Z,14.30
2023-04-29T20:28:23.807Z,14.20
2023-04-29T20:30:51.844Z,14.20
2023-04-29T20:33:19.698Z,14.10
2023-04-29T20:35:47.502Z,14.10
2023-04-29T20:38:16.657Z,14.10
2023-04-29T20:40:44.408Z,14.10
2023-04-29T20:43:12.170Z,14.10
2023-04-29T20:45:39.962Z,14.10
2023-04-29T20:48:08.495Z,14.10
2023-04-29T20:50:36.450Z,14.00
2023-04-29T20:53:04.240Z,14.00
2023-04-29T20:55:33.518Z,14.00
2023-04-29T20:58:01.274Z,13.90
2023-04-29T21:00:29.028Z,13.90
2023-04-29T21:02:56.847Z,13.90
2023-04-29T21:05:24.681Z,13.90
2023-04-29T21:07:52.471Z,13.90
2023-04-29T21:10:20.822Z,13.90
2023-04-29T21:12:49.887Z,13.80
2023-04-29T21:15:17.876Z,13.80
2023-04-29T21:17:45.949Z,13.80
2023-04-29T21:20:14.263Z,13.70
2023-04-29T21:22:42.118Z,13.70
2023-04-29T21:25:10.225Z,13.70
2023-04-29T21:27:38.004Z,13.60
2023-04-29T21:30:08.274Z,13.60
2023-04-29T21:32:36.112Z,13.60
2023-04-29T21:35:03.901Z,13.60
2023-04-29T21:37:31.961Z,13.50
2023-04-29T21:40:00.358Z,13.50
2023-04-29T21:42:28.602Z,13.50
2023-04-29T21:45:01.372Z,13.50
2023-04-29T21:47:30.705Z,13.40
2023-04-29T21:49:58.783Z,13.40
2023-04-29T21:52:26.851Z,13.40
2023-04-29T21:54:54.704Z,13.30
2023-04-29T21:57:32.003Z,13.30
2023-04-29T22:00:20.735Z,13.30
2023-04-29T22:02:49.950Z,13.30
2023-04-29T22:05:17.926Z,13.20
2023-04-29T22:07:45.996Z,13.20
2023-04-29T22:10:13.795Z,13.20
2023-04-29T22:12:41.688Z,13.20
2023-04-29T22:15:24.475Z,13.20
2023-04-29T22:17:57.723Z,13.20
2023-04-29T22:20:26.117Z,13.20
2023-04-29T22:22:53.988Z,13.20
2023-04-29T22:25:22.117Z,13.10
2023-04-29T22:27:50.258Z,13.10
2023-04-29T22:30:18.745Z,13.20
2023-04-29T22:32:46.552Z,13.20
2023-04-29T22:35:15.868Z,13.10
2023-04-29T22:37:43.649Z,13.10
2023-04-29T22:40:12.928Z,13.10
2023-04-29T22:42:42.726Z,13.10
2023-04-29T22:45:11.971Z,13.00
2023-04-29T22:47:39.836Z,13.00
2023-04-29T22:50:08.671Z,13.00
2023-04-29T22:52:37.877Z,13.00
2023-04-29T22:55:09.313Z,13.00
2023-04-29T22:57:37.138Z,12.90
2023-04-29T23:02:47.091Z,12.90
2023-04-29T23:05:15.087Z,12.90
2023-04-29T23:07:44.181Z,12.90
2023-04-29T23:10:12.038Z,12.80
2023-04-29T23:12:39.834Z,12.80
2023-04-29T23:15:08.550Z,12.80
2023-04-29T23:17:39.597Z,12.80
2023-04-29T23:20:11.612Z,12.80
2023-04-29T23:22:39.356Z,12.80
2023-04-29T23:25:09.187Z,12.80
2023-04-29T23:27:37.731Z,12.70
2023-04-29T23:30:06.860Z,12.70
2023-04-29T23:32:34.763Z,12.70
2023-04-29T23:35:02.856Z,12.70
2023-04-29T23:37:30.842Z,12.70
2023-04-29T23:39:58.753Z,12.70
2023-04-29T23:42:28.042Z,12.70
2023-04-29T23:44:56.231Z,12.70
2023-04-29T23:47:24.087Z,12.70
2023-04-29T23:49:52.184Z,12.70
2023-04-29T23:52:20.192Z,12.60
2023-04-29T23:54:47.963Z,12.60
2023-04-29T23:57:15.755Z,12.60
2023-04-29T23:59:45.516Z,12.60
